EDDC/DRS METAR and TAF weather

Enter ICAO airport designator
Station Type Date Time Source
EDDC METAR 2021/09/24 06:20 UTC NOAA

EDDC 240620Z 29010KT 260V330 9999 FEW019 12/09 Q1015 NOSIG


Station Type Date Time Source
EDDC Decoded METAR 2021/09/24 06:20 UTC NOAA

Dresden-Klotzsche, Germany (EDDC) 51-08N 013-45E 232M
Sep 24, 2021 - 02:20 AM EDT / 2021.09.24 0620 UTC
Wind: from the WNW (290 degrees) at 12 MPH (10 KT) (direction variable):0
Visibility: greater than 7 mile(s):0
Sky conditions: mostly clear
Temperature: 53 F (12 C)
Dew Point: 48 F (9 C)
Relative Humidity: 81%
Pressure (altimeter): 29.97 in. Hg (1015 hPa)
ob: EDDC 240620Z 29010KT 260V330 9999 FEW019 12/09 Q1015 NOSIG
cycle: 6

Station Type Date Time Source
EDDC TAF 2021/09/24 06:27 UTC NOAA

TAF EDDC 240500Z 2406/2506 28010G20KT 9999 SCT020
TEMPO 2407/2414 27015G25KT
BECMG 2415/2418 24005KT

Example: see airport list